Terminal Aerodrome Forecast
Issued by NWS

Home | Current Version | Previous Version | Text Only | Print | Product List | Glossary On
Versions: 1 2 3 4 5 6 7 8 9 10 11 12 13 14 15 16 17 18
000
FTUS46 KMTR 201500 AAA
TAFMRY
TAF AMD
KMRY 201500Z 2015/2112 08003KT P6SM SKC
     FM202000 29008KT P6SM SKC
     FM210400 24006KT P6SM SCT009
     FM210600 VRB03KT P6SM BKN007=

USA.gov is the U.S. government's official web portal to all federal, state and local government web resources and services.